Terminal Aerodrome Forecast
Issued by NWS

Home | Current Version | Previous Version | Text Only | Print | Product List | Glossary On
Versions: 1 2 3 4 5 6 7 8 9 10 11 12
000
FTUS45 KRIW 291122
TAFWRL
TAF
KWRL 291122Z 2912/3012 14010KT P6SM SKC
     FM291400 25006KT P6SM FEW120 SCT200
     FM292000 19008KT P6SM SCT110 BKN200
     FM300100 23007KT P6SM VCSH BKN080
     FM300800 VRB06KT P6SM SCT100=

USA.gov is the U.S. government's official web portal to all federal, state and local government web resources and services.